Prefeito Renato Moreira Airport
SBIZ : now visible

Airfield :











YOU CAN JOIN US ON...

 
LOGIN :

Register | Disclaimer

   EN    FR    IT 

 









Legend :    VFR   Marginal VFR   IFR   Intensive IFR   Very Intensive IFR
Visi :
Ceiling :
>= 8 km
>= 3000ft
5 to 8 km
1000 to 3000 ft
1500m to 5 km
500 to 1000 ft
800 to 1500m
200 to 500 ft
< 800m
< 200 ft
Symbols :   Thunderstorms  Fog  Heavy snow  Heavy precipitations  Wind > 20 kt






- Airport Elevation : 432 ft
- IATA code : IMP


SBIZ - Prefeito Renato Moreira

CURRENT METAR :
  • 051400Z 02004KT 9999 BKN025 31/24 Q1013

EXPIRED METARs :
  • 051300Z 03009KT 9999 BKN025 31/25 Q1013
  • 051200Z 02004KT CAVOK 29/23 Q1013

TAF TAF SBIZ
Valid from the 05 at 12:00 until the 06 at 00:00 UTC


050803Z 0512/0524 06005KT 9999 FEW020 TN28/0512Z TX35/0517Z
BECMG 0515/0517 13007KT
PROB30 0519/0521 TS SCT020 FEW025CB RMK PHI
SBAZ FIR / South America



MET'MAP, your aeronautical weather chart ! - Copyright ORBIFLY December 2007 - Disclaimer

ORBIFLY MET'MAP TEAM :

Programming & Development : Alexandra Zaïnal
Concept & original design : Baudouin d'Aumeries
Assistance for programming : Marc-Olivier Méhu
Technical & hardware support : Manuel Goepfert

Contact : metmap@orbifly.com




SOURCES & CREDITS :

   NOAA       Earth
Advisory